Time;durP1;ratioP1;P1;durP2;ratioP2;P2;SDS_P1;SDS_P2;PMS_P1;PMS_P2;Temp;Humidity;BMP_temperature;BMP_pressure;BME280_temperature;BME280_humidity;BME280_pressure;Samples;Min_cycle;Max_cycle;Signal;HPM_P1;HPM_P2
2023/03/30 00:01:16;;;;;;;2.60;2.03;;;;;;;5.20;45.55;98811.59;5034596;28;20232;-59
2023/03/30 00:03:43;;;;;;;2.03;1.80;;;;;;;4.97;45.76;98770.69;5034664;28;20213;-59
2023/03/30 00:06:09;;;;;;;2.50;1.92;;;;;;;4.86;46.09;98734.38;5034610;28;20174;-59
2023/03/30 00:08:36;;;;;;;3.30;1.83;;;;;;;4.63;46.65;98724.22;5034547;28;20257;-59
2023/03/30 00:11:12;;;;;;;2.17;1.98;;;;;;;4.63;47.00;98725.94;5034521;28;20206;-59
2023/03/30 00:13:38;;;;;;;2.03;1.65;;;;;;;5.00;47.30;98811.56;5034458;28;20220;-59
2023/03/30 00:16:06;;;;;;;2.47;2.10;;;;;;;4.68;47.37;98757.34;5034447;28;20199;-59
2023/03/30 00:18:33;;;;;;;1.88;1.75;;;;;;;4.95;47.47;98813.47;5034363;28;20201;-59
2023/03/30 00:21:01;;;;;;;2.47;1.88;;;;;;;4.82;47.34;98771.28;5034318;28;20194;-59
2023/03/30 00:23:27;;;;;;;1.90;1.80;;;;;;;5.15;47.40;98784.47;5034352;28;20174;-59
2023/03/30 00:25:53;;;;;;;2.40;1.88;;;;;;;4.63;48.04;98754.13;5034281;28;20688;-59
2023/03/30 00:28:18;;;;;;;2.70;1.70;;;;;;;4.71;48.05;98776.00;5034311;28;20258;-59
2023/03/30 00:30:44;;;;;;;3.30;2.28;;;;;;;4.95;47.64;98816.03;5034222;28;20185;-59
2023/03/30 00:33:09;;;;;;;2.70;1.98;;;;;;;4.39;48.54;98765.34;5034133;28;20185;-59
2023/03/30 00:35:35;;;;;;;2.00;1.90;;;;;;;4.72;48.79;98805.84;5034170;28;20589;-59
2023/03/30 00:38:02;;;;;;;4.18;1.52;;;;;;;4.93;48.93;98830.66;5034092;28;20190;-59
2023/03/30 00:40:29;;;;;;;3.65;2.25;;;;;;;4.77;49.10;98773.19;5033955;28;20190;-59
2023/03/30 00:43:06;;;;;;;2.08;1.50;;;;;;;4.61;48.73;98733.69;5033949;28;20305;-59
2023/03/30 00:45:33;;;;;;;2.03;1.80;;;;;;;4.83;48.48;98772.94;5034003;28;20166;-58
2023/03/30 00:47:58;;;;;;;2.80;1.40;;;;;;;5.30;48.18;98833.41;5033851;28;20216;-59
2023/03/30 00:50:44;;;;;;;1.90;1.70;;;;;;;4.99;48.37;98758.63;5033831;28;20179;-59
2023/03/30 00:53:17;;;;;;;2.55;1.88;;;;;;;5.01;48.91;98807.28;5033896;28;20200;-59
2023/03/30 00:55:45;;;;;;;2.78;1.50;;;;;;;4.39;49.81;98732.88;5033818;28;20209;-59
2023/03/30 00:58:13;;;;;;;1.60;1.50;;;;;;;4.68;49.84;98773.56;5033671;28;20179;-59
2023/03/30 01:00:39;;;;;;;1.88;1.70;;;;;;;4.45;49.91;98724.94;5033552;28;20252;-59
2023/03/30 01:03:30;;;;;;;1.60;1.50;;;;;;;4.13;50.15;98712.53;5033581;28;20178;-59
2023/03/30 01:05:57;;;;;;;3.58;1.70;;;;;;;4.83;49.80;98798.59;5033597;28;20159;-59
2023/03/30 01:08:26;;;;;;;1.30;1.20;;;;;;;4.29;50.39;98715.34;5032770;28;20726;-59
2023/03/30 01:10:52;;;;;;;1.60;1.30;;;;;;;4.52;50.51;98790.44;5033092;28;20186;-59
2023/03/30 01:13:18;;;;;;;2.67;1.58;;;;;;;4.33;51.29;98766.41;5033432;28;20175;-59
2023/03/30 01:16:22;;;;;;;2.97;1.75;;;;;;;4.32;50.78;98805.69;5033313;28;20550;-59
2023/03/30 01:19:19;;;;;;;2.20;2.00;;;;;;;3.66;51.87;98707.50;5030889;28;20252;-59
2023/03/30 01:22:05;;;;;;;1.98;1.85;;;;;;;4.25;52.40;98809.38;5030880;28;20202;-59
2023/03/30 01:24:47;;;;;;;2.53;2.00;;;;;;;3.49;52.43;98702.16;5030835;28;20742;-59
2023/03/30 01:27:29;;;;;;;3.80;1.90;;;;;;;4.16;52.27;98806.34;5030854;28;20192;-59
2023/03/30 01:30:21;;;;;;;2.60;2.10;;;;;;;4.42;52.09;98812.16;5030704;28;20202;-59
2023/03/30 01:32:59;;;;;;;3.47;2.03;;;;;;;4.52;52.66;98820.31;5030685;28;20179;-59
2023/03/30 01:35:43;;;;;;;2.60;2.05;;;;;;;4.61;52.64;98813.13;5030611;28;20198;-59
2023/03/30 01:38:30;;;;;;;2.33;1.73;;;;;;;4.66;52.41;98810.41;5030605;28;20178;-59
2023/03/30 01:41:18;;;;;;;3.17;1.83;;;;;;;4.08;52.93;98708.50;5030501;28;20202;-59
2023/03/30 01:43:53;;;;;;;3.50;1.65;;;;;;;4.32;52.63;98746.78;5030491;28;20190;-59
2023/03/30 01:46:43;;;;;;;1.73;1.63;;;;;;;4.49;53.14;98810.22;5030397;28;20208;-59
2023/03/30 01:49:21;;;;;;;2.15;1.95;;;;;;;4.29;52.63;98775.09;5030469;28;20190;-59
2023/03/30 01:51:56;;;;;;;1.50;1.40;;;;;;;4.36;52.27;98768.84;5030466;28;20204;-59
2023/03/30 01:54:30;;;;;;;2.15;1.45;;;;;;;4.03;52.75;98733.44;5030361;28;20240;-59
2023/03/30 01:57:06;;;;;;;2.10;1.90;;;;;;;4.30;53.83;98797.25;5032725;28;20204;-59
2023/03/30 01:59:43;;;;;;;2.42;1.77;;;;;;;4.16;52.86;98750.84;5032566;28;20163;-59
2023/03/30 02:02:12;;;;;;;2.45;1.50;;;;;;;3.73;53.77;98709.78;5032610;28;20205;-59
2023/03/30 02:04:40;;;;;;;1.60;1.50;;;;;;;4.00;53.98;98756.56;5032491;28;20648;-59
2023/03/30 02:07:14;;;;;;;1.73;1.60;;;;;;;4.49;53.50;98817.91;5032397;28;20276;-59
2023/03/30 02:09:41;;;;;;;3.17;1.40;;;;;;;4.53;53.26;98810.03;5032481;28;20158;-59
2023/03/30 02:12:09;;;;;;;1.80;1.70;;;;;;;4.27;53.12;98771.72;5032088;28;20213;-59
2023/03/30 02:14:37;;;;;;;1.58;1.50;;;;;;;4.01;53.18;98714.72;5032649;28;20220;-59
2023/03/30 02:17:10;;;;;;;3.00;1.83;;;;;;;4.16;52.96;98730.34;5032359;28;20656;-59
2023/03/30 02:19:36;;;;;;;1.90;1.67;;;;;;;4.31;53.68;98773.31;5031070;28;20237;-59
2023/03/30 02:22:03;;;;;;;2.40;1.38;;;;;;;4.21;53.03;98736.13;5032291;28;20187;-59
2023/03/30 02:24:30;;;;;;;2.50;2.08;;;;;;;4.27;54.36;98758.94;5031916;28;20265;-59
2023/03/30 02:26:58;;;;;;;2.47;1.85;;;;;;;4.05;54.23;98724.81;5010067;28;20689;-59
2023/03/30 02:29:23;;;;;;;1.80;1.70;;;;;;;4.51;54.46;98803.28;5010080;28;20214;-59
2023/03/30 02:31:52;;;;;;;2.30;2.00;;;;;;;4.25;54.68;98783.78;5010307;28;20222;-59
2023/03/30 02:34:38;;;;;;;1.40;1.27;;;;;;;4.47;55.21;98823.06;5010015;28;20171;-60
2023/03/30 02:37:23;;;;;;;2.50;1.40;;;;;;;4.62;54.89;98825.03;5010098;28;20187;-59
2023/03/30 02:40:12;;;;;;;3.05;1.42;;;;;;;4.68;55.51;98824.81;5010019;28;20241;-59
2023/03/30 02:42:44;;;;;;;1.60;1.48;;;;;;;4.80;54.53;98832.03;5009988;28;20199;-59
2023/03/30 02:45:36;;;;;;;1.77;1.52;;;;;;;4.23;54.40;98734.34;5010041;28;20175;-59
2023/03/30 02:48:22;;;;;;;1.17;1.17;;;;;;;4.85;54.45;98831.84;5009998;28;20191;-59
2023/03/30 02:51:03;;;;;;;3.10;1.65;;;;;;;4.83;54.78;98843.91;5009936;28;20178;-59
2023/03/30 02:53:28;;;;;;;1.75;1.65;;;;;;;4.75;55.38;98843.34;5009888;28;20195;-59
2023/03/30 02:56:02;;;;;;;2.45;1.50;;;;;;;4.58;56.27;98844.00;5009738;28;20201;-59
2023/03/30 02:58:40;;;;;;;2.03;1.92;;;;;;;4.04;55.87;98728.25;5025565;28;20194;-59
2023/03/30 03:01:16;;;;;;;1.90;1.55;;;;;;;4.63;55.47;98839.53;5031871;28;20197;-59
2023/03/30 03:03:48;;;;;;;1.70;1.50;;;;;;;4.17;55.59;98785.78;5031907;28;20174;-59
2023/03/30 03:06:14;;;;;;;2.00;1.70;;;;;;;4.30;55.27;98779.31;5031970;28;20169;-59
2023/03/30 03:08:43;;;;;;;1.67;1.58;;;;;;;4.57;55.21;98818.44;5031890;28;20183;-59
2023/03/30 03:11:09;;;;;;;2.50;1.88;;;;;;;4.29;55.58;98794.72;5031878;28;20205;-60
2023/03/30 03:13:36;;;;;;;3.75;1.52;;;;;;;4.29;56.83;98823.75;5031859;28;20183;-60
2023/03/30 03:16:06;;;;;;;1.55;1.45;;;;;;;4.39;56.50;98837.91;5031829;28;20626;-59
2023/03/30 03:18:33;;;;;;;2.13;1.65;;;;;;;4.14;57.03;98787.63;5031812;28;20182;-59
2023/03/30 03:20:59;;;;;;;1.60;1.55;;;;;;;3.68;57.43;98744.94;5031650;28;20209;-59
2023/03/30 03:23:25;;;;;;;2.30;1.50;;;;;;;3.91;57.41;98783.34;5031741;28;20171;-60
2023/03/30 03:25:51;;;;;;;2.10;1.52;;;;;;;4.35;57.58;98858.53;5031696;28;20265;-60
2023/03/30 03:28:16;;;;;;;1.48;1.38;;;;;;;3.93;57.42;98796.94;5089305;28;20758;-60
2023/03/30 03:30:42;;;;;;;3.58;1.90;;;;;;;3.54;57.86;98747.16;5091347;28;20588;-60
2023/03/30 03:33:07;;;;;;;1.45;1.35;;;;;;;3.87;58.13;98817.63;5093153;28;20199;-60
2023/03/30 03:35:33;;;;;;;1.85;1.70;;;;;;;3.83;57.79;98793.03;5072778;28;20671;-60
2023/03/30 03:37:59;;;;;;;1.65;1.55;;;;;;;4.19;57.08;98834.41;5072998;28;20289;-60
2023/03/30 03:40:24;;;;;;;1.70;1.60;;;;;;;4.15;58.69;98863.56;5072667;28;20216;-60
2023/03/30 03:42:50;;;;;;;2.20;1.75;;;;;;;3.68;58.47;98762.03;5072735;28;20196;-60
2023/03/30 03:45:15;;;;;;;1.63;1.48;;;;;;;4.05;58.46;98847.69;5072736;28;20193;-60
2023/03/30 03:47:41;;;;;;;2.70;1.40;;;;;;;4.04;58.19;98835.78;5072680;28;20655;-60
2023/03/30 03:50:08;;;;;;;1.67;1.58;;;;;;;3.53;58.56;98772.78;5072590;28;20196;-60
2023/03/30 03:52:35;;;;;;;1.67;1.40;;;;;;;4.04;58.51;98874.19;5072299;28;20652;-60
2023/03/30 03:55:00;;;;;;;2.15;1.90;;;;;;;3.93;59.11;98871.16;5072070;28;20660;-60
2023/03/30 03:57:26;;;;;;;1.80;1.70;;;;;;;3.63;58.58;98784.38;5072462;28;20181;-60
2023/03/30 03:59:52;;;;;;;2.03;1.83;;;;;;;3.83;58.99;98826.28;5042366;28;20684;-60
2023/03/30 04:02:18;;;;;;;4.15;2.42;;;;;;;3.76;59.49;98835.09;5032415;28;20261;-60
2023/03/30 04:04:43;;;;;;;3.25;1.70;;;;;;;3.61;59.04;98789.53;5032400;28;20186;-60
2023/03/30 04:07:08;;;;;;;1.65;1.55;;;;;;;3.77;58.47;98798.38;5047401;28;20276;-60
2023/03/30 04:09:34;;;;;;;1.70;1.60;;;;;;;3.71;58.02;98811.38;5052227;28;20182;-60
2023/03/30 04:11:59;;;;;;;3.65;2.20;;;;;;;3.54;58.39;98811.13;5012238;28;20187;-60
2023/03/30 04:14:25;;;;;;;2.53;2.05;;;;;;;3.42;58.91;98815.81;5012390;28;20187;-60
2023/03/30 04:16:50;;;;;;;4.43;2.47;;;;;;;3.97;58.96;98885.50;5012340;28;20245;-60
2023/03/30 04:19:16;;;;;;;1.88;1.65;;;;;;;3.95;59.89;98891.56;5012096;28;20225;-60
2023/03/30 04:21:45;;;;;;;5.20;2.00;;;;;;;3.47;59.40;98796.88;5012060;28;20215;-60
2023/03/30 04:24:14;;;;;;;4.28;2.10;;;;;;;3.96;59.50;98868.47;5012144;28;20238;-60
2023/03/30 04:26:40;;;;;;;1.92;1.70;;;;;;;4.21;59.61;98899.19;5012134;28;20203;-60
2023/03/30 04:29:06;;;;;;;2.25;2.05;;;;;;;4.29;59.57;98877.53;5012076;28;20194;-60
2023/03/30 04:31:34;;;;;;;4.43;1.95;;;;;;;4.36;59.36;98896.91;5011972;28;20191;-60
2023/03/30 04:34:01;;;;;;;2.70;2.17;;;;;;;3.84;59.24;98797.25;5011880;28;20190;-59
2023/03/30 04:36:28;;;;;;;2.25;2.10;;;;;;;4.44;59.85;98912.00;5011880;28;20210;-60
2023/03/30 04:38:59;;;;;;;2.85;2.33;;;;;;;4.19;60.01;98880.50;5012170;28;20203;-60
2023/03/30 04:41:33;;;;;;;3.20;2.40;;;;;;;4.27;60.06;98870.81;4991261;28;20208;-60
2023/03/30 04:44:04;;;;;;;2.92;2.17;;;;;;;4.37;59.56;98870.41;5010081;28;20219;-60
2023/03/30 04:46:30;;;;;;;4.70;2.60;;;;;;;4.44;59.77;98866.72;5012055;28;20631;-60
2023/03/30 04:48:56;;;;;;;3.78;2.63;;;;;;;4.34;58.64;98834.66;5011778;28;20193;-60
2023/03/30 04:51:21;;;;;;;1.92;1.83;;;;;;;4.59;57.93;98878.13;5030539;28;20277;-60
2023/03/30 04:53:47;;;;;;;1.50;1.40;;;;;;;4.89;57.12;98918.81;5031499;28;20174;-60
2023/03/30 04:56:12;;;;;;;1.70;1.60;;;;;;;4.85;56.98;98901.06;5030984;28;20352;-60
2023/03/30 04:58:38;;;;;;;6.65;6.00;;;;;;;4.95;57.10;98912.66;5031500;28;20229;-60
2023/03/30 05:01:03;;;;;;;1.77;1.67;;;;;;;4.75;56.93;98882.66;5031190;28;20222;-60
2023/03/30 05:03:29;;;;;;;1.50;1.40;;;;;;;5.16;56.43;98935.75;5043585;28;20197;-60
2023/03/30 05:05:55;;;;;;;2.33;1.58;;;;;;;4.51;56.66;98885.28;5051048;28;20246;-60
2023/03/30 05:08:21;;;;;;;2.97;1.40;;;;;;;4.91;56.82;98945.22;5051019;28;20170;-60
2023/03/30 05:10:46;;;;;;;2.22;1.48;;;;;;;4.66;56.51;98890.66;5051018;28;20190;-60
2023/03/30 05:13:12;;;;;;;2.05;1.95;;;;;;;4.59;56.70;98891.78;5036106;28;20193;-60
2023/03/30 05:15:38;;;;;;;2.08;1.50;;;;;;;4.96;56.91;98935.66;5033102;28;20265;-60
2023/03/30 05:18:04;;;;;;;2.28;1.70;;;;;;;4.66;56.19;98866.78;5032983;28;20186;-60
2023/03/30 05:20:30;;;;;;;2.05;1.90;;;;;;;5.26;56.33;98947.28;5032875;28;20199;-60
2023/03/30 05:22:55;;;;;;;2.35;1.92;;;;;;;5.40;55.44;98954.47;5033133;28;20324;-60
2023/03/30 05:25:21;;;;;;;2.60;2.40;;;;;;;5.01;54.10;98874.78;5033292;28;20232;-60
2023/03/30 05:27:46;;;;;;;4.80;3.40;;;;;;;5.30;54.56;98901.84;5048545;28;20633;-60
2023/03/30 05:30:12;;;;;;;4.15;3.22;;;;;;;5.57;54.70;98928.97;5052778;28;20268;-60
2023/03/30 05:32:38;;;;;;;7.30;3.55;;;;;;;5.72;55.15;98928.34;5052718;28;20528;-60
2023/03/30 05:35:03;;;;;;;6.47;4.15;;;;;;;5.98;54.55;98944.38;5052729;28;20181;-60
2023/03/30 05:37:29;;;;;;;12.48;5.20;;;;;;;5.96;54.14;98920.50;5052674;28;20181;-60
2023/03/30 05:39:54;;;;;;;8.88;5.40;;;;;;;5.90;54.24;98901.94;5052304;28;20201;-60
2023/03/30 05:42:22;;;;;;;14.07;7.05;;;;;;;6.15;53.95;98921.41;5052290;28;20234;-60
2023/03/30 05:44:47;;;;;;;6.70;3.40;;;;;;;6.04;53.27;98856.81;5049937;28;20213;-60
2023/03/30 05:47:13;;;;;;;8.73;3.95;;;;;;;6.39;53.00;98910.06;5050108;28;20277;-60
2023/03/30 05:49:38;;;;;;;8.93;4.78;;;;;;;6.68;52.75;98945.59;5050008;28;20181;-60
2023/03/30 05:52:04;;;;;;;5.13;3.45;;;;;;;6.70;52.95;98930.91;5029986;28;20222;-61
2023/03/30 05:54:29;;;;;;;6.80;4.20;;;;;;;6.96;52.85;98952.91;5009712;28;20673;-60
2023/03/30 05:56:55;;;;;;;4.47;3.05;;;;;;;6.59;52.69;98871.44;5009996;28;20256;-60
2023/03/30 05:59:20;;;;;;;6.10;3.15;;;;;;;6.96;51.86;98897.16;5009849;28;20218;-60
2023/03/30 06:01:46;;;;;;;4.57;3.08;;;;;;;7.23;51.44;98926.72;5008969;28;20277;-60
2023/03/30 06:04:12;;;;;;;8.68;3.20;;;;;;;7.54;51.10;98962.16;5009216;28;20282;-60
2023/03/30 06:06:40;;;;;;;7.82;3.25;;;;;;;7.16;51.01;98907.34;5009580;28;20227;-60
2023/03/30 06:09:06;;;;;;;7.70;2.47;;;;;;;7.50;50.71;98951.16;5009547;28;20188;-60
2023/03/30 06:11:31;;;;;;;5.13;2.80;;;;;;;7.38;50.52;98915.72;5009670;28;20187;-60
2023/03/30 06:13:57;;;;;;;4.55;2.50;;;;;;;7.24;50.10;98881.25;5009916;28;20333;-60
2023/03/30 06:16:23;;;;;;;3.05;2.58;;;;;;;7.83;48.79;98970.16;5024760;28;20191;-60
2023/03/30 06:18:48;;;;;;;2.65;2.45;;;;;;;7.39;48.46;98883.91;5029844;28;20201;-60
2023/03/30 06:21:14;;;;;;;5.78;3.20;;;;;;;7.70;47.97;98912.41;5029775;28;20207;-60
2023/03/30 06:23:40;;;;;;;6.28;3.42;;;;;;;8.21;47.35;98978.63;5044786;28;20275;-60
2023/03/30 06:26:06;;;;;;;7.55;4.63;;;;;;;8.34;46.46;98983.06;5044703;28;20189;-60
2023/03/30 06:28:32;;;;;;;5.65;4.28;;;;;;;7.96;45.12;98882.78;5049723;28;20194;-60
2023/03/30 06:31:00;;;;;;;6.20;3.90;;;;;;;8.41;44.69;98943.19;5049748;28;20200;-60
2023/03/30 06:33:26;;;;;;;4.80;3.60;;;;;;;8.57;43.33;98927.75;5029688;28;20218;-60
2023/03/30 06:35:53;;;;;;;8.15;3.45;;;;;;;8.97;42.39;98948.75;5029811;28;20690;-60
2023/03/30 06:38:21;;;;;;;7.03;3.40;;;;;;;9.24;42.32;98988.59;5029751;28;20198;-60
2023/03/30 06:40:47;;;;;;;6.25;3.40;;;;;;;8.93;42.61;98936.13;5029663;28;20214;-60
2023/03/30 06:43:18;;;;;;;3.90;2.97;;;;;;;9.41;42.61;98998.84;5029777;28;20192;-60
2023/03/30 06:45:55;;;;;;;6.03;3.28;;;;;;;9.09;42.05;98911.97;5029715;28;20199;-60
2023/03/30 06:48:22;;;;;;;7.15;3.40;;;;;;;9.52;41.91;98965.50;5029751;28;20170;-60
2023/03/30 06:50:49;;;;;;;8.95;3.42;;;;;;;9.68;41.39;99005.06;5029663;28;20645;-60
2023/03/30 06:53:15;;;;;;;4.47;3.30;;;;;;;8.73;41.82;98892.50;5029306;28;20188;-60
2023/03/30 06:55:41;;;;;;;7.15;4.03;;;;;;;9.39;42.13;98995.50;5029425;28;20280;-60
2023/03/30 06:58:06;;;;;;;8.13;3.50;;;;;;;9.35;41.91;98975.94;5048252;28;20223;-60
2023/03/30 07:00:32;;;;;;;5.20;2.92;;;;;;;9.53;42.15;98985.25;5049338;28;20206;-60
2023/03/30 07:02:57;;;;;;;5.53;3.10;;;;;;;9.82;41.75;99010.31;5049571;28;20307;-60
2023/03/30 07:05:23;;;;;;;6.93;2.92;;;;;;;9.86;41.28;99004.88;5050953;28;20181;-60
2023/03/30 07:07:50;;;;;;;5.57;3.17;;;;;;;9.71;40.90;98948.06;5053475;28;20587;-60
2023/03/30 07:10:16;;;;;;;5.00;3.15;;;;;;;9.97;41.08;98960.31;5054022;28;20563;-60
2023/03/30 07:12:42;;;;;;;5.18;3.25;;;;;;;10.15;41.13;98975.66;5055709;28;20178;-60
2023/03/30 07:15:08;;;;;;;6.28;3.25;;;;;;;10.24;41.21;98982.03;5055648;28;20181;-60
2023/03/30 07:17:34;;;;;;;7.63;3.08;;;;;;;10.01;41.42;98943.72;5055622;28;20177;-60
2023/03/30 07:20:00;;;;;;;5.22;3.25;;;;;;;10.29;41.19;98961.91;5055210;28;20673;-60
2023/03/30 07:22:26;;;;;;;5.28;3.10;;;;;;;10.23;41.70;98933.84;5055559;28;20178;-60
2023/03/30 07:24:52;;;;;;;5.60;3.08;;;;;;;10.52;41.94;98969.16;5033053;28;20206;-60
2023/03/30 07:27:17;;;;;;;5.55;3.50;;;;;;;10.45;42.13;98988.56;5033171;28;20190;-60
2023/03/30 07:29:43;;;;;;;5.03;3.50;;;;;;;10.17;42.20;98921.25;5033267;28;20193;-60
2023/03/30 07:32:08;;;;;;;6.00;3.30;;;;;;;10.61;42.06;98990.13;5032991;28;20178;-60
2023/03/30 07:34:34;;;;;;;4.32;3.17;;;;;;;10.56;42.53;98983.59;5032743;28;20681;-60
2023/03/30 07:37:00;;;;;;;7.60;3.25;;;;;;;10.42;43.01;98952.50;5033243;28;20744;-60
2023/03/30 07:39:26;;;;;;;4.25;3.70;;;;;;;10.49;42.56;98941.72;5032711;28;20183;-60
2023/03/30 07:41:52;;;;;;;8.35;3.38;;;;;;;11.00;42.15;99008.47;5032827;28;20217;-60
2023/03/30 07:44:17;;;;;;;5.57;2.97;;;;;;;11.05;42.39;98996.06;5032819;28;20556;-60
2023/03/30 07:46:43;;;;;;;7.88;3.22;;;;;;;11.17;41.95;98984.97;5032781;28;20664;-60
2023/03/30 07:49:08;;;;;;;5.20;3.78;;;;;;;11.33;42.03;99000.38;5032809;28;20213;-60
2023/03/30 07:51:34;;;;;;;5.97;3.20;;;;;;;10.95;41.71;98926.81;5032706;28;20199;-60
2023/03/30 07:54:00;;;;;;;6.55;3.40;;;;;;;11.38;41.65;98981.03;5032621;28;20227;-60
2023/03/30 07:56:25;;;;;;;4.90;3.15;;;;;;;11.38;41.67;98975.03;5048862;28;20201;-60
2023/03/30 07:58:51;;;;;;;7.28;3.28;;;;;;;11.34;42.07;98981.31;5054883;28;20178;-61
2023/03/30 08:01:17;;;;;;;7.60;4.43;;;;;;;11.26;42.06;98986.16;5054710;28;20212;-61
2023/03/30 08:03:43;;;;;;;6.72;3.88;;;;;;;11.12;42.61;98965.44;5055056;28;20203;-61
2023/03/30 08:06:10;;;;;;;6.57;3.80;;;;;;;11.16;42.76;98959.97;5054799;28;20256;-60
2023/03/30 08:08:37;;;;;;;3.78;3.20;;;;;;;10.77;43.25;98912.41;5072089;28;20717;-60
2023/03/30 08:11:04;;;;;;;5.95;3.67;;;;;;;10.25;44.63;98904.38;5072290;28;20185;-60
2023/03/30 08:13:31;;;;;;;5.40;3.88;;;;;;;10.84;44.35;98968.03;5072226;28;20192;-61
2023/03/30 08:15:57;;;;;;;6.55;3.50;;;;;;;10.70;44.68;98934.41;5072204;28;20222;-60
2023/03/30 08:18:22;;;;;;;5.93;3.95;;;;;;;10.94;44.88;98976.91;5032071;28;20268;-60
2023/03/30 08:20:53;;;;;;;6.95;4.25;;;;;;;10.86;45.35;98974.78;5032251;28;20222;-60
2023/03/30 08:23:19;;;;;;;7.75;6.35;;;;;;;10.83;45.23;98940.50;5032006;28;20186;-60
2023/03/30 08:25:46;;;;;;;6.50;3.10;;;;;;;10.93;45.17;98921.75;5032079;28;20194;-60
2023/03/30 08:28:12;;;;;;;6.03;3.30;;;;;;;11.07;45.33;98907.91;5031993;28;20190;-61
2023/03/30 08:30:37;;;;;;;3.58;3.10;;;;;;;11.31;44.42;98914.97;5032004;28;20710;-60
2023/03/30 08:33:02;;;;;;;7.53;3.38;;;;;;;11.55;44.15;98933.31;5032182;28;20179;-61
2023/03/30 08:35:28;;;;;;;8.82;3.20;;;;;;;11.81;44.15;98950.63;5031831;28;20617;-60
2023/03/30 08:37:54;;;;;;;5.00;3.13;;;;;;;11.67;44.22;98901.47;5031840;28;20193;-61
2023/03/30 08:40:20;;;;;;;6.45;3.85;;;;;;;11.99;43.71;98942.50;5031729;28;20210;-61
2023/03/30 08:43:04;;;;;;;6.68;3.42;;;;;;;12.27;43.27;98963.09;5031228;28;20179;-61
2023/03/30 08:45:38;;;;;;;7.47;6.03;;;;;;;11.97;42.99;98889.06;5032029;28;20167;-60
2023/03/30 08:48:19;;;;;;;10.73;4.63;;;;;;;11.94;43.29;98899.63;5031742;28;20612;-61
2023/03/30 08:51:13;;;;;;;7.90;5.03;;;;;;;12.11;43.34;98920.94;5031709;28;20186;-61
2023/03/30 08:53:39;;;;;;;6.78;4.30;;;;;;;11.91;43.16;98889.47;5031559;28;20171;-61
2023/03/30 08:56:06;;;;;;;2.95;2.67;;;;;;;12.31;42.62;98935.19;5044879;28;20692;-60
2023/03/30 08:58:41;;;;;;;3.90;3.03;;;;;;;12.43;42.32;98935.16;5053787;28;20170;-61
2023/03/30 09:01:18;;;;;;;6.63;2.92;;;;;;;12.65;41.74;98937.16;5053407;28;20203;-61
2023/03/30 09:04:03;;;;;;;6.57;3.72;;;;;;;12.77;41.92;98928.53;5053726;28;20181;-61
2023/03/30 09:06:48;;;;;;;4.93;3.17;;;;;;;12.91;41.60;98930.97;5051180;28;20193;-61
2023/03/30 09:09:26;;;;;;;3.13;2.60;;;;;;;12.74;41.00;98893.22;5049958;28;20229;-61
2023/03/30 09:12:05;;;;;;;7.03;3.50;;;;;;;12.34;41.41;98846.72;5051179;28;20244;-61
2023/03/30 09:14:54;;;;;;;6.45;2.97;;;;;;;12.86;41.44;98907.09;5051170;28;20200;-61
2023/03/30 09:17:28;;;;;;;4.95;3.63;;;;;;;12.64;41.04;98860.19;5048759;28;20239;-61
2023/03/30 09:20:02;;;;;;;8.25;5.55;;;;;;;12.52;41.23;98848.06;5050045;28;20371;-61
2023/03/30 09:22:37;;;;;;;6.85;4.53;;;;;;;13.11;40.90;98914.84;5051043;28;20235;-59
2023/03/30 09:25:15;;;;;;;11.20;7.57;;;;;;;12.86;41.06;98863.78;5050923;28;20579;-59
2023/03/30 09:27:51;;;;;;;6.85;4.20;;;;;;;13.31;40.83;98904.69;5050375;28;20265;-59
2023/03/30 09:30:23;;;;;;;6.10;4.18;;;;;;;13.25;41.20;98909.53;5050772;28;20221;-59
2023/03/30 09:33:13;;;;;;;4.22;3.03;;;;;;;13.31;40.41;98902.09;5050833;28;20257;-59
2023/03/30 09:35:41;;;;;;;3.38;2.90;;;;;;;12.91;39.99;98819.31;4991318;28;20186;-59
2023/03/30 09:38:12;;;;;;;7.22;3.50;;;;;;;13.07;40.67;98861.47;4991279;28;20191;-59
2023/03/30 09:40:40;;;;;;;4.38;3.47;;;;;;;13.33;40.83;98900.22;4991305;28;20688;-59
2023/03/30 09:43:35;;;;;;;4.05;2.92;;;;;;;13.01;40.48;98821.16;4997246;28;20257;-59
2023/03/30 09:46:10;;;;;;;5.28;3.05;;;;;;;12.97;40.60;98811.09;5010971;28;20800;-59
2023/03/30 09:48:46;;;;;;;7.78;3.08;;;;;;;13.09;40.13;98860.41;5010780;28;20692;-59
2023/03/30 09:51:25;;;;;;;3.92;3.45;;;;;;;13.38;39.65;98886.91;5010930;28;20190;-59
2023/03/30 09:54:00;;;;;;;3.25;2.58;;;;;;;13.02;38.12;98850.56;5010840;28;20178;-60
2023/03/30 09:56:43;;;;;;;2.85;2.53;;;;;;;12.93;38.52;98796.63;5010484;28;20739;-60
2023/03/30 09:59:28;;;;;;;1.83;1.73;;;;;;;13.34;37.12;98826.50;5010723;28;20550;-60
2023/03/30 10:02:17;;;;;;;4.28;2.33;;;;;;;13.70;36.79;98867.19;5010635;28;20221;-60
2023/03/30 10:05:02;;;;;;;2.45;2.22;;;;;;;13.60;36.36;98832.41;5010553;28;20650;-59
2023/03/30 10:07:30;;;;;;;2.30;2.10;;;;;;;13.41;36.73;98785.31;5045676;28;20214;-60
2023/03/30 10:09:57;;;;;;;3.28;1.95;;;;;;;13.87;35.56;98835.53;5052486;28;20170;-59
2023/03/30 10:12:24;;;;;;;2.20;1.48;;;;;;;13.98;34.27;98822.56;5052462;28;20208;-59
2023/03/30 10:15:17;;;;;;;2.75;1.52;;;;;;;14.40;34.01;98868.78;5052406;28;20703;-59
2023/03/30 10:17:46;;;;;;;4.10;3.22;;;;;;;13.99;34.35;98782.59;5052134;28;20549;-59
2023/03/30 10:20:23;;;;;;;3.70;3.22;;;;;;;14.58;35.38;98854.34;5069737;28;20592;-59
2023/03/30 10:22:59;;;;;;;6.22;2.92;;;;;;;14.26;36.39;98807.38;5069986;28;20196;-59
2023/03/30 10:25:30;;;;;;;3.83;2.88;;;;;;;14.37;35.77;98796.97;5069930;28;20655;-60
2023/03/30 10:28:01;;;;;;;1.65;1.55;;;;;;;14.52;34.54;98797.53;5069889;28;20177;-60
2023/03/30 10:30:28;;;;;;;13.85;9.32;;;;;;;14.62;34.70;98798.44;5069867;28;20188;-60
2023/03/30 10:32:57;;;;;;;3.40;2.20;;;;;;;14.75;34.07;98789.56;5069717;28;20180;-60
2023/03/30 10:35:25;;;;;;;3.25;2.60;;;;;;;15.07;34.13;98811.28;5069782;28;20268;-60
2023/03/30 10:37:54;;;;;;;6.32;2.10;;;;;;;15.01;33.87;98764.03;5069816;28;20624;-60
2023/03/30 10:40:32;;;;;;;5.72;3.70;;;;;;;15.41;34.05;98835.47;5068801;28;20208;-60
2023/03/30 10:42:59;;;;;;;5.47;3.08;;;;;;;15.36;34.27;98798.50;5069797;28;20173;-60
2023/03/30 10:45:36;;;;;;;3.92;1.58;;;;;;;15.80;33.37;98834.81;5069712;28;20275;-61
2023/03/30 10:48:11;;;;;;;2.20;1.92;;;;;;;15.75;32.24;98774.38;5069795;28;20604;-60
2023/03/30 10:50:55;;;;;;;2.05;1.05;;;;;;;16.44;32.06;98834.53;5064867;28;20189;-60
2023/03/30 10:53:36;;;;;;;15.05;9.18;;;;;;;16.16;31.85;98793.41;5052032;28;20178;-60
2023/03/30 10:56:14;;;;;;;1.98;1.75;;;;;;;16.67;32.62;98832.56;5051754;28;20535;-60
2023/03/30 10:58:39;;;;;;;11.45;5.15;;;;;;;16.83;31.86;98827.63;5051899;28;20184;-60
2023/03/30 11:01:36;;;;;;;3.10;2.15;;;;;;;16.95;32.80;98818.72;5052159;28;20198;-60
2023/03/30 11:04:20;;;;;;;3.40;2.00;;;;;;;17.10;32.51;98820.00;5051706;28;20162;-60
2023/03/30 11:06:47;;;;;;;5.13;1.90;;;;;;;17.03;32.91;98763.97;5051885;28;20176;-60
2023/03/30 11:09:18;;;;;;;2.90;2.05;;;;;;;17.34;32.58;98789.03;5069411;28;20223;-60
2023/03/30 11:11:51;;;;;;;3.55;1.95;;;;;;;17.23;32.13;98731.63;5069529;28;20225;-60
2023/03/30 11:14:24;;;;;;;3.17;1.83;;;;;;;17.49;32.35;98756.31;5069805;28;20250;-60
2023/03/30 11:17:01;;;;;;;1.73;1.55;;;;;;;17.68;31.88;98770.19;5069530;28;20242;-60
2023/03/30 11:19:50;;;;;;;4.80;1.30;;;;;;;17.76;31.44;98775.53;5069429;28;20250;-60
2023/03/30 11:22:17;;;;;;;3.28;1.65;;;;;;;17.61;31.92;98791.81;5069426;28;20180;-60
2023/03/30 11:24:48;;;;;;;2.35;1.83;;;;;;;17.26;32.92;98733.97;5069342;28;20196;-60
2023/03/30 11:27:25;;;;;;;2.45;2.22;;;;;;;17.43;32.73;98769.94;5069355;28;20165;-61
2023/03/30 11:30:15;;;;;;;18.88;11.88;;;;;;;17.40;33.16;98764.97;5069352;28;20189;-61
2023/03/30 11:32:46;;;;;;;2.20;2.00;;;;;;;17.39;33.37;98734.56;5069432;28;20174;-60
2023/03/30 11:35:25;;;;;;;1.60;1.50;;;;;;;17.82;33.02;98761.03;5069316;28;20241;-61
2023/03/30 11:38:05;;;;;;;2.47;2.28;;;;;;;17.95;33.20;98761.59;5069293;28;20749;-61
2023/03/30 11:40:36;;;;;;;3.53;2.97;;;;;;;17.75;32.42;98682.28;5057811;28;20290;-60
2023/03/30 11:43:02;;;;;;;3.30;2.10;;;;;;;17.79;32.52;98675.75;5051829;28;20193;-60
2023/03/30 11:45:49;;;;;;;10.73;6.65;;;;;;;18.12;32.65;98747.75;5049020;28;20641;-60
2023/03/30 11:48:17;;;;;;;2.72;2.22;;;;;;;18.31;31.60;98745.03;5049164;28;20177;-60
2023/03/30 11:51:14;;;;;;;5.15;1.80;;;;;;;18.37;31.77;98744.50;5049463;28;20588;-60
2023/03/30 11:53:56;;;;;;;5.40;4.13;;;;;;;17.99;31.92;98671.28;4993241;28;20774;-60
2023/03/30 11:56:38;;;;;;;2.10;1.50;;;;;;;18.14;32.05;98733.50;4993263;28;20210;-60